createdAt,value
2023-10-23T00:01:37.621Z,76.46
2023-10-23T00:04:43.405Z,76.38
2023-10-23T00:07:49.160Z,76.39
2023-10-23T00:10:52.128Z,76.83
2023-10-23T00:13:55.401Z,76.57
2023-10-23T00:17:02.561Z,76.32
2023-10-23T00:20:06.230Z,75.98
2023-10-23T00:23:09.140Z,76.71
2023-10-23T00:26:11.901Z,77.06
2023-10-23T00:29:20.490Z,76.47
2023-10-23T00:32:23.620Z,76.41
2023-10-23T00:35:26.516Z,76.50
2023-10-23T00:38:32.533Z,76.40
2023-10-23T00:41:36.039Z,76.22
2023-10-23T00:44:38.790Z,76.04
2023-10-23T00:47:41.780Z,76.85
2023-10-23T00:50:44.703Z,76.67
2023-10-23T00:53:48.258Z,76.49
2023-10-23T00:56:52.999Z,76.68
2023-10-23T00:59:55.995Z,76.60
2023-10-23T01:02:58.788Z,76.71
2023-10-23T01:06:01.890Z,76.92
2023-10-23T01:09:05.004Z,77.23
2023-10-23T01:12:08.002Z,76.94
2023-10-23T01:15:10.760Z,77.19
2023-10-23T01:18:13.933Z,77.02
2023-10-23T01:21:18.976Z,76.65
2023-10-23T01:24:25.131Z,77.09
2023-10-23T01:27:28.889Z,76.92
2023-10-23T01:30:32.540Z,76.74
2023-10-23T01:33:36.042Z,77.22
2023-10-23T01:36:40.438Z,77.12
2023-10-23T01:39:43.329Z,77.64
2023-10-23T01:42:48.162Z,77.35
2023-10-23T01:45:51.302Z,77.49
2023-10-23T01:48:54.138Z,77.75
2023-10-23T01:52:01.542Z,77.41
2023-10-23T01:55:04.891Z,77.75
2023-10-23T01:58:10.044Z,77.71
2023-10-23T02:01:22.358Z,76.94
2023-10-23T02:04:25.579Z,77.61
2023-10-23T02:07:28.997Z,78.37
2023-10-23T02:10:33.130Z,77.62
2023-10-23T02:13:36.436Z,77.97
2023-10-23T02:16:39.464Z,77.89
2023-10-23T02:19:42.246Z,78.43
2023-10-23T02:22:47.117Z,78.19
2023-10-23T02:25:51.744Z,78.96
2023-10-23T02:28:54.410Z,79.30
2023-10-23T02:31:57.591Z,79.24
2023-10-23T02:35:00.491Z,79.45
2023-10-23T02:38:03.982Z,79.10
2023-10-23T02:41:07.048Z,78.47
2023-10-23T02:44:12.997Z,77.67
2023-10-23T02:47:16.104Z,77.40
2023-10-23T02:50:22.424Z,78.18
2023-10-23T02:53:27.347Z,77.96
2023-10-23T02:56:34.117Z,77.30
2023-10-23T02:59:36.928Z,77.70
2023-10-23T03:02:39.488Z,77.72
2023-10-23T03:05:42.925Z,77.95
2023-10-23T03:08:45.441Z,78.47
2023-10-23T03:11:48.281Z,77.84
2023-10-23T03:14:51.336Z,77.71
2023-10-23T03:17:56.133Z,77.84
2023-10-23T03:21:03.280Z,78.29
2023-10-23T03:24:09.220Z,78.85
2023-10-23T03:27:12.632Z,78.27
2023-10-23T03:30:19.139Z,78.40
2023-10-23T03:33:22.025Z,78.27
2023-10-23T03:36:28.802Z,78.53
2023-10-23T03:39:31.873Z,78.73
2023-10-23T03:42:34.734Z,78.39
2023-10-23T03:45:42.657Z,78.41
2023-10-23T03:48:47.108Z,77.87
2023-10-23T03:51:50.115Z,77.85
2023-10-23T03:54:54.674Z,77.96
2023-10-23T03:57:58.539Z,78.60
2023-10-23T04:01:01.217Z,78.39
2023-10-23T04:04:08.106Z,78.55
2023-10-23T04:07:12.277Z,78.45
2023-10-23T04:10:15.315Z,78.09
2023-10-23T04:13:18.261Z,78.90
2023-10-23T04:16:21.189Z,79.58
2023-10-23T04:19:25.545Z,79.68
2023-10-23T04:22:28.227Z,79.44
2023-10-23T04:25:35.404Z,79.46
2023-10-23T04:28:38.228Z,79.04
2023-10-23T04:31:41.237Z,79.22
2023-10-23T04:34:46.660Z,79.44
2023-10-23T04:37:49.623Z,78.77
2023-10-23T04:40:54.561Z,78.77
2023-10-23T04:43:57.172Z,78.01
2023-10-23T04:47:01.405Z,78.82
2023-10-23T04:50:09.067Z,78.56
2023-10-23T04:53:13.850Z,78.48
2023-10-23T04:56:16.698Z,78.12
2023-10-23T04:59:28.622Z,77.77
2023-10-23T05:02:32.092Z,77.66
2023-10-23T05:05:35.376Z,77.68
2023-10-23T05:08:38.214Z,77.93
2023-10-23T05:11:45.254Z,78.49
2023-10-23T05:14:50.306Z,78.62
2023-10-23T05:17:55.838Z,78.39
2023-10-23T05:20:58.818Z,78.32
2023-10-23T05:24:01.537Z,77.31
2023-10-23T05:27:07.154Z,77.13
2023-10-23T05:30:10.961Z,77.42
2023-10-23T05:33:15.183Z,76.71
2023-10-23T05:36:18.992Z,76.47
2023-10-23T05:39:21.745Z,75.99
2023-10-23T05:42:24.700Z,76.07
2023-10-23T05:45:27.591Z,76.52
2023-10-23T05:48:30.575Z,76.58
2023-10-23T05:51:36.117Z,76.61
2023-10-23T05:54:39.048Z,76.45
2023-10-23T05:57:42.138Z,76.16
2023-10-23T06:00:45.031Z,76.64
2023-10-23T06:03:48.419Z,76.18
2023-10-23T06:06:51.588Z,76.02
2023-10-23T06:09:54.663Z,75.54
2023-10-23T06:12:57.546Z,75.10
2023-10-23T06:16:06.196Z,74.90
2023-10-23T06:19:10.186Z,74.87
2023-10-23T06:22:13.093Z,74.51
2023-10-23T06:25:18.621Z,74.40
2023-10-23T06:28:21.455Z,74.74
2023-10-23T06:31:26.498Z,74.94
2023-10-23T06:34:29.273Z,74.84
2023-10-23T06:37:34.739Z,75.18
2023-10-23T06:40:38.331Z,74.51
2023-10-23T06:43:42.363Z,74.43
2023-10-23T06:46:45.013Z,74.08
2023-10-23T06:49:47.949Z,73.97
2023-10-23T06:52:53.180Z,73.98
2023-10-23T06:55:56.677Z,73.29
2023-10-23T06:59:00.064Z,72.72
2023-10-23T07:02:03.802Z,71.77
2023-10-23T07:05:06.983Z,71.26
2023-10-23T07:08:10.482Z,70.43
2023-10-23T07:11:19.252Z,69.51
2023-10-23T07:14:22.186Z,67.81
2023-10-23T07:17:26.136Z,65.99
2023-10-23T07:20:29.907Z,64.87
2023-10-23T07:23:33.226Z,63.61
2023-10-23T07:26:36.177Z,63.37
2023-10-23T07:29:40.883Z,63.52
2023-10-23T07:32:44.325Z,62.46
2023-10-23T07:35:53.520Z,62.67
2023-10-23T07:38:56.699Z,62.45
2023-10-23T07:41:59.430Z,61.95
2023-10-23T07:45:02.347Z,61.61
2023-10-23T07:48:05.099Z,61.00
2023-10-23T07:51:08.114Z,61.13
2023-10-23T07:54:13.416Z,59.53
2023-10-23T07:57:16.060Z,58.94
2023-10-23T08:00:18.936Z,58.58
2023-10-23T08:03:21.786Z,56.74
2023-10-23T08:06:24.534Z,56.10
2023-10-23T08:09:27.133Z,55.43
2023-10-23T08:12:30.057Z,55.15
2023-10-23T08:15:32.890Z,53.80
2023-10-23T08:18:39.092Z,53.48
2023-10-23T08:21:43.859Z,53.39
2023-10-23T08:24:47.205Z,53.12
2023-10-23T08:27:52.541Z,51.72
2023-10-23T08:30:55.446Z,50.87
2023-10-23T08:33:58.505Z,50.80
2023-10-23T08:37:04.327Z,49.75
2023-10-23T08:40:08.864Z,49.86
2023-10-23T08:43:14.241Z,47.85
2023-10-23T08:46:17.362Z,46.51
2023-10-23T08:49:20.516Z,43.54
2023-10-23T08:52:27.033Z,42.48
2023-10-23T08:55:33.765Z,39.17
2023-10-23T08:58:38.860Z,38.24
2023-10-23T09:01:43.375Z,37.32
2023-10-23T09:04:47.463Z,33.78
2023-10-23T09:07:50.736Z,24.83
2023-10-23T09:11:04.550Z,22.47
2023-10-23T09:14:08.942Z,19.98
2023-10-23T09:17:11.691Z,18.72
2023-10-23T09:20:17.174Z,20.98
2023-10-23T09:23:20.286Z,19.82
2023-10-23T09:26:25.688Z,19.40
2023-10-23T09:29:29.201Z,17.78
2023-10-23T09:32:31.658Z,16.18
2023-10-23T09:35:38.553Z,15.17
2023-10-23T09:38:43.359Z,15.58
2023-10-23T09:41:49.292Z,16.07
2023-10-23T09:44:54.286Z,14.44
2023-10-23T09:48:00.648Z,13.49
2023-10-23T09:51:06.892Z,13.46
2023-10-23T09:54:19.081Z,12.49
2023-10-23T09:57:33.642Z,12.89
2023-10-23T10:00:39.401Z,14.10
2023-10-23T10:03:43.988Z,12.84
2023-10-23T10:06:57.146Z,14.82
2023-10-23T10:10:01.108Z,17.16
2023-10-23T10:13:05.704Z,16.87
2023-10-23T10:16:09.114Z,15.17
2023-10-23T10:19:13.613Z,17.99
2023-10-23T10:22:23.956Z,18.30
2023-10-23T10:25:29.607Z,17.59
2023-10-23T10:28:32.565Z,18.13
2023-10-23T10:32:13.779Z,19.54
2023-10-23T10:35:41.962Z,17.90
2023-10-23T10:38:49.934Z,15.17
2023-10-23T10:41:52.797Z,14.11
2023-10-23T10:45:16.087Z,13.36
2023-10-23T10:48:21.950Z,13.55
2023-10-23T10:51:26.709Z,12.25
2023-10-23T10:54:34.020Z,11.49
2023-10-23T10:57:43.287Z,12.17
2023-10-23T11:00:47.351Z,14.21
2023-10-23T11:03:50.084Z,14.17
2023-10-23T11:06:54.206Z,12.68
2023-10-23T11:09:57.113Z,12.28
2023-10-23T11:13:00.346Z,12.32
2023-10-23T11:16:06.021Z,13.13
2023-10-23T11:19:09.125Z,13.04
2023-10-23T11:22:13.790Z,13.06
2023-10-23T11:25:17.039Z,12.47
2023-10-23T11:28:20.152Z,13.98
2023-10-23T11:31:25.609Z,13.38
2023-10-23T11:34:29.994Z,13.10
2023-10-23T11:37:39.990Z,12.76
2023-10-23T11:40:46.493Z,11.78
2023-10-23T11:43:49.060Z,14.33
2023-10-23T11:46:53.219Z,14.67
2023-10-23T11:49:59.106Z,13.92
2023-10-23T11:53:01.952Z,13.60
2023-10-23T11:56:05.048Z,13.95
2023-10-23T11:59:08.080Z,13.46
2023-10-23T12:02:10.992Z,14.18
2023-10-23T12:05:16.616Z,12.91
2023-10-23T12:08:19.501Z,13.19
2023-10-23T12:11:22.669Z,14.49
2023-10-23T12:14:29.777Z,13.80
2023-10-23T12:17:32.876Z,13.86
2023-10-23T12:20:35.594Z,13.70
2023-10-23T12:23:39.319Z,15.02
2023-10-23T12:26:42.296Z,14.11
2023-10-23T12:29:45.716Z,12.74
2023-10-23T12:33:17.522Z,12.53
2023-10-23T12:36:11.537Z,13.06
2023-10-23T12:39:14.289Z,13.42
2023-10-23T12:42:19.684Z,14.27
2023-10-23T12:45:25.363Z,16.44
2023-10-23T12:48:28.427Z,13.21
2023-10-23T12:51:33.872Z,13.53
2023-10-23T12:54:36.990Z,13.85
2023-10-23T12:57:45.221Z,15.25
2023-10-23T13:00:48.142Z,15.45
2023-10-23T13:03:50.819Z,17.98
2023-10-23T13:06:54.357Z,16.79
2023-10-23T13:09:58.380Z,15.09
2023-10-23T13:13:01.378Z,13.65
2023-10-23T13:16:06.775Z,13.08
2023-10-23T13:19:12.347Z,13.15
2023-10-23T13:22:17.800Z,13.74
2023-10-23T13:25:20.510Z,13.50
2023-10-23T13:28:23.569Z,13.62
2023-10-23T13:31:29.452Z,13.60
2023-10-23T13:34:32.209Z,14.55
2023-10-23T13:37:35.429Z,14.30
2023-10-23T13:40:38.107Z,13.11
2023-10-23T13:43:42.776Z,14.40
2023-10-23T13:46:46.309Z,16.16
2023-10-23T13:49:49.387Z,16.77
2023-10-23T13:52:54.813Z,17.05
2023-10-23T13:55:59.744Z,18.22
2023-10-23T13:59:02.779Z,17.49
2023-10-23T14:02:05.565Z,17.79
2023-10-23T14:05:08.855Z,18.40
2023-10-23T14:08:11.820Z,18.53
2023-10-23T14:11:57.050Z,18.40
2023-10-23T14:14:41.811Z,19.81
2023-10-23T14:17:45.208Z,20.74
2023-10-23T14:20:50.049Z,21.16
2023-10-23T14:23:55.509Z,26.43
2023-10-23T14:26:58.904Z,30.26
2023-10-23T14:30:01.662Z,31.94
2023-10-23T14:33:04.860Z,29.89
2023-10-23T14:36:25.257Z,34.31
2023-10-23T14:39:28.633Z,36.67
2023-10-23T14:42:37.287Z,38.25
2023-10-23T14:45:41.658Z,40.58
2023-10-23T14:48:46.879Z,41.11
2023-10-23T14:51:52.037Z,41.45
2023-10-23T14:54:55.539Z,42.53
2023-10-23T14:57:58.934Z,43.97
2023-10-23T15:01:01.907Z,44.17
2023-10-23T15:04:05.605Z,44.78
2023-10-23T15:07:10.025Z,45.64
2023-10-23T15:10:13.041Z,45.83
2023-10-23T15:13:16.182Z,46.04
2023-10-23T15:16:19.324Z,47.05
2023-10-23T15:19:22.276Z,47.33
2023-10-23T15:22:29.217Z,47.68
2023-10-23T15:25:32.066Z,47.67
2023-10-23T15:28:36.808Z,47.80
2023-10-23T15:31:40.256Z,48.73
2023-10-23T15:34:45.580Z,49.26
2023-10-23T15:37:50.274Z,49.66
2023-10-23T15:41:04.069Z,50.41
2023-10-23T15:44:07.012Z,51.00
2023-10-23T15:47:11.250Z,51.81
2023-10-23T15:50:14.101Z,51.69
2023-10-23T15:53:24.196Z,51.72
2023-10-23T15:56:28.033Z,52.79
2023-10-23T15:59:32.087Z,52.80
2023-10-23T16:02:35.168Z,53.18
2023-10-23T16:05:39.564Z,53.21
2023-10-23T16:08:42.585Z,53.97
2023-10-23T16:11:45.884Z,54.02
2023-10-23T16:14:56.669Z,54.34
2023-10-23T16:18:00.388Z,54.23
2023-10-23T16:21:05.104Z,54.15
2023-10-23T16:24:12.195Z,54.22
2023-10-23T16:27:18.057Z,54.06
2023-10-23T16:30:21.029Z,54.16
2023-10-23T16:33:24.864Z,53.67
2023-10-23T16:36:30.520Z,53.44
2023-10-23T16:39:33.322Z,53.92
2023-10-23T16:42:36.590Z,54.27
2023-10-23T16:45:40.912Z,54.12
2023-10-23T16:48:46.733Z,53.54
2023-10-23T16:51:50.192Z,53.39
2023-10-23T16:54:53.337Z,53.98
2023-10-23T16:57:59.415Z,54.20
2023-10-23T17:01:07.722Z,54.94
2023-10-23T17:04:11.326Z,54.79
2023-10-23T17:07:16.930Z,56.40
2023-10-23T17:10:21.611Z,56.65
2023-10-23T17:13:25.374Z,56.71
2023-10-23T17:16:32.725Z,56.36
2023-10-23T17:19:36.821Z,56.15
2023-10-23T17:22:40.779Z,56.36
2023-10-23T17:25:47.025Z,57.52
2023-10-23T17:28:52.568Z,57.38
2023-10-23T17:31:56.964Z,56.91
2023-10-23T17:35:01.414Z,57.08
2023-10-23T17:38:06.054Z,58.57
2023-10-23T17:41:32.806Z,58.19
2023-10-23T17:44:36.544Z,58.50
2023-10-23T17:47:40.660Z,56.90
2023-10-23T17:50:45.735Z,57.79
2023-10-23T17:56:57.605Z,58.62
2023-10-23T18:00:01.832Z,58.77
2023-10-23T18:03:28.166Z,59.95
2023-10-23T18:06:32.684Z,59.31
2023-10-23T18:09:38.596Z,58.86
2023-10-23T18:12:42.131Z,58.40
2023-10-23T18:15:48.626Z,59.39
2023-10-23T18:18:52.626Z,59.36
2023-10-23T18:22:00.788Z,60.04
2023-10-23T18:25:05.671Z,61.14
2023-10-23T18:28:13.138Z,61.25
2023-10-23T18:31:22.692Z,61.29
2023-10-23T18:34:49.098Z,62.26
2023-10-23T18:37:54.387Z,61.75
2023-10-23T18:41:03.268Z,60.78
2023-10-23T18:44:11.344Z,61.56
2023-10-23T18:47:17.751Z,61.37
2023-10-23T18:50:27.257Z,61.27
2023-10-23T18:53:32.306Z,61.20
2023-10-23T18:56:38.115Z,61.86
2023-10-23T18:59:44.433Z,61.95
2023-10-23T19:02:49.239Z,61.97
2023-10-23T19:06:00.431Z,61.46
2023-10-23T19:09:06.910Z,61.16
2023-10-23T19:12:10.668Z,61.73
2023-10-23T19:15:15.305Z,61.96
2023-10-23T19:18:23.069Z,62.05
2023-10-23T19:21:27.449Z,62.50
2023-10-23T19:24:31.279Z,63.15
2023-10-23T19:27:36.996Z,62.86
2023-10-23T19:30:42.974Z,63.46
2023-10-23T19:33:49.846Z,63.33
2023-10-23T19:36:53.232Z,63.58
2023-10-23T19:39:56.852Z,64.28
2023-10-23T19:43:13.792Z,64.52
2023-10-23T19:46:19.756Z,64.44
2023-10-23T19:49:24.881Z,65.03
2023-10-23T19:52:28.895Z,64.32
2023-10-23T19:55:44.935Z,64.48
2023-10-23T19:58:50.446Z,64.57
2023-10-23T20:01:58.621Z,65.00
2023-10-23T20:05:04.653Z,65.22
2023-10-23T20:08:09.107Z,65.96
2023-10-23T20:11:12.874Z,65.55
2023-10-23T20:14:17.601Z,66.03
2023-10-23T20:17:21.363Z,65.53
2023-10-23T20:20:24.991Z,65.79
2023-10-23T20:23:28.519Z,65.52
2023-10-23T20:26:31.447Z,65.83
2023-10-23T20:29:37.018Z,65.97
2023-10-23T20:32:40.080Z,66.44
2023-10-23T20:35:45.247Z,66.75
2023-10-23T20:38:48.700Z,66.59
2023-10-23T20:41:54.356Z,66.60
2023-10-23T20:44:58.624Z,67.54
2023-10-23T20:48:01.570Z,67.19
2023-10-23T20:51:06.534Z,67.33
2023-10-23T20:54:09.478Z,66.86
2023-10-23T20:57:12.308Z,67.35
2023-10-23T21:00:15.595Z,66.88
2023-10-23T21:03:18.604Z,67.17
2023-10-23T21:06:22.891Z,67.60
2023-10-23T21:09:28.628Z,68.27
2023-10-23T21:12:32.399Z,67.54
2023-10-23T21:15:37.659Z,67.87
2023-10-23T21:18:40.274Z,67.61
2023-10-23T21:21:46.656Z,68.35
2023-10-23T21:24:51.327Z,67.68
2023-10-23T21:27:57.742Z,67.76
2023-10-23T21:31:02.093Z,67.56
2023-10-23T21:34:04.909Z,68.24
2023-10-23T21:37:08.856Z,67.56
2023-10-23T21:40:12.304Z,68.25
2023-10-23T21:43:16.091Z,67.56
2023-10-23T21:46:19.230Z,68.21
2023-10-23T21:49:24.402Z,68.44
2023-10-23T21:52:28.654Z,67.64
2023-10-23T21:55:31.751Z,68.05
2023-10-23T21:59:05.360Z,68.28
2023-10-23T22:01:58.744Z,68.40
2023-10-23T22:05:01.541Z,68.84
2023-10-23T22:08:04.604Z,67.89
2023-10-23T22:11:08.850Z,68.01
2023-10-23T22:14:12.256Z,70.03
2023-10-23T22:17:15.036Z,69.70
2023-10-23T22:20:18.135Z,69.54
2023-10-23T22:23:21.192Z,69.40
2023-10-23T22:26:23.756Z,69.27
2023-10-23T22:29:26.820Z,70.01
2023-10-23T22:32:29.677Z,69.72
2023-10-23T22:35:35.394Z,69.50
2023-10-23T22:38:38.301Z,69.37
2023-10-23T22:41:41.794Z,69.13
2023-10-23T22:44:44.744Z,68.95
2023-10-23T22:47:47.327Z,69.01
2023-10-23T22:50:50.378Z,69.31
2023-10-23T22:53:53.639Z,69.74
2023-10-23T22:57:04.765Z,69.95
2023-10-23T23:00:12.727Z,70.13
2023-10-23T23:03:15.853Z,70.44
2023-10-23T23:06:21.043Z,71.30
2023-10-23T23:09:23.835Z,70.29
2023-10-23T23:12:26.869Z,71.04
2023-10-23T23:15:30.468Z,71.96
2023-10-23T23:18:36.359Z,71.06
2023-10-23T23:21:43.132Z,71.42
2023-10-23T23:24:45.956Z,70.58
2023-10-23T23:27:51.748Z,71.08
2023-10-23T23:30:54.559Z,70.90
2023-10-23T23:33:57.389Z,70.55
2023-10-23T23:36:59.912Z,70.31
2023-10-23T23:40:02.848Z,70.36
2023-10-23T23:43:08.703Z,71.05
2023-10-23T23:46:11.401Z,71.90
2023-10-23T23:49:15.503Z,72.12
2023-10-23T23:52:18.233Z,71.25
2023-10-23T23:55:23.111Z,71.40
2023-10-23T23:58:26.810Z,71.81
